Aviation Digital Data Service (ADDS)

Output produced by TAFs form (0552 UTC 25 February 2018)
found at http://aviationweather.gov/adds/tafs/
 
METAR text: EPWA 250530Z 01006KT 9999 FEW025 M14/M17 Q1029 R33/2///95 NOSIG
Conditions at: EPWA (WARSAW/OKECIE , PL) observed 0530 UTC 25 February 2018
Temperature: -14.0°C (7°F)
Dewpoint: -17.0°C (1°F) [RH = 78%]
Pressure (altimeter): 30.38 inches Hg (1029.0 mb)
Winds: from the N (10 degrees) at 7 MPH (6 knots; 3.1 m/s)
Visibility: 6 or more miles (10+ km)
Ceiling: at least 12,000 feet AGL
Clouds: few clouds at 2500 feet AGL
Weather: no significant weather observed at this time

Forecast for: EPWA (WARSAW/OKECIE , PL)
Text: TAF EPWA 250530Z 2506/2606 02010KT 9999 SCT020
Forecast period: 0600 UTC 25 February 2018 to 0600 UTC 26 February 2018
Forecast type: FROM: standard forecast or significant change
Winds: from the NNE (20 degrees) at 12 MPH (10 knots; 5.2 m/s)
Visibility: 6 or more miles (10+ km)
Clouds: scattered clouds at 2000 feet AGL
Weather: no significant weather forecast for this period